ADDS TAF Board (Experimental) INFO Settings
IDs: Format: Expanded Condensed

KDEN - Denver Intl, CO, US

Issued at 2109 UTC 01 Jul 2015
Updated at: 2311 UTC 01 Jul 2015
Time2258Z 02/00Z 02/01Z 02/02Z 02/03Z 02/04Z 02/05Z 02/06Z 02/07Z 02/08Z 02/09Z 02/10Z 02/11Z 02/12Z
Type OBS PRVL
  [TEMP]  
PRVL
  [TEMP]  
PRVL PRVL PRVL PRVL PRVL PRVL PRVL PRVL PRVL PRVL PRVL
VIS 10 >6 >6 >6 >6 >6 >6 >6 >6 >6 >6 >6 >6 >6
CIG 85 140
  [70]  
140
  [70]  
120 120 120 120 -- -- -- -- -- -- --
Cover OVC BKN
  [BKN]  
BKN
  [BKN]  
BKN BKN BKN BKN SCT SCT SCT SCT SCT SCT SCT
FltCat VFR VFR
  [VFR]  
VFR
  [VFR]  
VFR VFR VFR VFR VFR VFR VFR VFR VFR VFR VFR
WX -TSRA --
  [-TSRA]  
--
  [-TSRA]  
-- -- -- -- -- -- -- -- -- -- --
WDir 240 130
[VRB]
130
[VRB]
180 180 180 180 210 210 210 210 210 210 210
WSpd 9 4
  [20]  
4
  [20]  
10 10 10 10 10 10 10 10 10 10 10
WGst -- --
  [32]  
--
  [32]  
-- -- -- -- -- -- -- -- -- -- --
R07/25
XWnd -4 -3 -3 -10 -10 -10 -10 -9 -9 -9 -9 -9 -9 -9
XGst -- 0 0 -- -- -- -- -- -- -- -- -- -- --
HWnd -8 3 3 0 0 0 0 -5 -5 -5 -5 -5 -5 -5
HGst -- 0 0 -- -- -- -- -- -- -- -- -- -- --
R08/26
XWnd -5 -3 -3 -10 -10 -10 -10 -9 -9 -9 -9 -9 -9 -9
XGst -- 0 0 -- -- -- -- -- -- -- -- -- -- --
HWnd -8 3 3 0 0 0 0 -5 -5 -5 -5 -5 -5 -5
HGst -- 0 0 -- -- -- -- -- -- -- -- -- -- --
R16/34
XWnd -8 3 3 0 0 0 0 -5 -5 -5 -5 -5 -5 -5
XGst -- 0 0 -- -- -- -- -- -- -- -- -- -- --
HWnd 5 3 3 10 10 10 10 9 9 9 9 9 9 9
HGst -- 0 0 -- -- -- -- -- -- -- -- -- -- --
R17/35
XWnd -8 3 3 0 0 0 0 -5 -5 -5 -5 -5 -5 -5
XGst -- 0 0 -- -- -- -- -- -- -- -- -- -- --
HWnd 5 3 3 10 10 10 10 9 9 9 9 9 9 9
HGst -- 0 0 -- -- -- -- -- -- -- -- -- -- --

NOTE: TEMPO conditions in [brackets]. Keep in mind TEMPO conditions might be better (lower impact) than prevailing conditions.

Raw TAF
KDEN 012109Z 0121/0224 13004KT P6SM SCT080 BKN140
  TEMPO 0122/0202 VRB20G32KT -TSRA BKN070CB
  FM020200 18010KT P6SM SCT080 BKN120
  FM020600 21010KT P6SM FEW080 SCT140 SCT200
  FM021500 03008KT P6SM FEW080 SCT140 SCT200
  FM022000 06010KT P6SM SCT080 BKN140
  PROB30 0221/0224 VRB20G32KT -TSRA BKN070CB


Raw METAR
KDEN 012258Z 24009KT 10SM -TSRA OVC085CB 23/16 A3016 RMK AO2 WSHFT 2240 OCNL LTGICCG SE TS SE MOV SE OCNL LTGICCG DSNT NE-SE CB DSNT NE-SE MOV SE P0000 T02280156
KDEN 012253Z 24011KT 10SM -RA OVC085 23/16 A3016 RMK AO2 PK WND 29026/2243 WSHFT 2221 RAB32 TSB44E46 SLP138 OCNL LTGICCG DSNT NE-SE CB DSNT NE-SE MOV SE P0000 T02280156
KDEN 012246Z COR 27017G25KT 10SM -RA OVC085 23/14 A3016 RMK AO2 PK WND 29026/2243 WSHFT 2221 OCNL LTGICCG DSNT NE-SE CB DSNT NE-SE MOV SE RAB32 TSB44E46 P0000 T02330144
KDEN 012236Z COR 31018KT 10SM -RA OVC080 26/13 A3015 RMK AO2 WSHFT 2221 OCNL LTGICCG DSNT ALQDS CB DSNT ALQDS MOV SE RAB32 P0000 T02560133
KDEN 012153Z 17007KT 10SM BKN090 OVC120 29/11 A3012 RMK AO2 SLP113 OCNL LTGICCG DSNT S-W CB DSNT S-W MOV SE T02940111
KDEN 012053Z 00000KT 10SM SCT090 SCT120 BKN200 31/09 A3012 RMK AO2 SLP109 T03110089 58012

METAR Board
Radar Display
Forecast Discussion

TAF Board Legend

Potential Impact
Threat None Slight Moderate High
Visibility (sm) ≥5.1 5.1>X≥3 3>X≥1 <1
Ceiling (100 ft) ≥30.1 30.1>X≥10 10>X≥5 <5
Wind Speed (kt) <10 10≤X<20 20≤X<30 ≥30
Wind Gust (kt) <15 15≤X<25 25≤X<35 ≥35
Weather No Wx Reported VCTS,-TS,-FZRA,SN TS,FZRA +TS,+FZRA,+SN